sensor_id;sensor_type;location;lat;lon;timestamp;pressure;altitude;pressure_sealevel;temperature;humidity
25759;BME280;13604;52.496;13.456;2023-02-17T00:01:08;101551.88;;;6.95;83.79
25759;BME280;13604;52.496;13.456;2023-02-17T00:03:33;101551.09;;;6.84;84.92
25759;BME280;13604;52.496;13.456;2023-02-17T00:05:58;101534.09;;;6.76;86.05
25759;BME280;13604;52.496;13.456;2023-02-17T00:08:24;101556.38;;;6.74;87.03
25759;BME280;13604;52.496;13.456;2023-02-17T00:10:57;101527.22;;;6.53;88.41
25759;BME280;13604;52.496;13.456;2023-02-17T00:13:22;101543.00;;;6.56;90.30
25759;BME280;13604;52.496;13.456;2023-02-17T00:15:47;101510.34;;;6.22;92.83
25759;BME280;13604;52.496;13.456;2023-02-17T00:18:13;101533.38;;;6.19;94.36
25759;BME280;13604;52.496;13.456;2023-02-17T00:20:38;101528.53;;;6.12;95.63
25759;BME280;13604;52.496;13.456;2023-02-17T00:23:03;101495.75;;;5.89;96.57
25759;BME280;13604;52.496;13.456;2023-02-17T00:25:29;101520.91;;;5.92;97.90
25759;BME280;13604;52.496;13.456;2023-02-17T00:27:54;101523.88;;;5.96;97.28
25759;BME280;13604;52.496;13.456;2023-02-17T00:30:19;101518.72;;;5.96;99.13
25759;BME280;13604;52.496;13.456;2023-02-17T00:32:45;101510.09;;;5.85;100.00
25759;BME280;13604;52.496;13.456;2023-02-17T00:35:10;101486.56;;;5.70;100.00
25759;BME280;13604;52.496;13.456;2023-02-17T00:37:35;101488.63;;;5.75;100.00
25759;BME280;13604;52.496;13.456;2023-02-17T00:40:00;101504.28;;;5.88;100.00
25759;BME280;13604;52.496;13.456;2023-02-17T00:42:26;101508.66;;;5.89;99.96
25759;BME280;13604;52.496;13.456;2023-02-17T00:44:51;101506.22;;;5.90;100.00
25759;BME280;13604;52.496;13.456;2023-02-17T00:47:16;101482.09;;;5.80;100.00
25759;BME280;13604;52.496;13.456;2023-02-17T00:49:42;101494.25;;;5.81;100.00
25759;BME280;13604;52.496;13.456;2023-02-17T00:52:07;101486.91;;;5.75;100.00
25759;BME280;13604;52.496;13.456;2023-02-17T00:54:32;101481.22;;;5.79;100.00
25759;BME280;13604;52.496;13.456;2023-02-17T00:56:58;101490.34;;;5.86;100.00
25759;BME280;13604;52.496;13.456;2023-02-17T00:59:23;101481.56;;;5.84;100.00
25759;BME280;13604;52.496;13.456;2023-02-17T01:01:48;101459.81;;;5.70;100.00
25759;BME280;13604;52.496;13.456;2023-02-17T01:04:13;101480.88;;;5.86;100.00
25759;BME280;13604;52.496;13.456;2023-02-17T01:06:39;101470.66;;;5.88;100.00
25759;BME280;13604;52.496;13.456;2023-02-17T01:09:06;101468.19;;;5.89;100.00
25759;BME280;13604;52.496;13.456;2023-02-17T01:11:34;101456.28;;;5.92;100.00
25759;BME280;13604;52.496;13.456;2023-02-17T01:14:00;101463.88;;;6.00;100.00
25759;BME280;13604;52.496;13.456;2023-02-17T01:16:29;101425.34;;;5.81;100.00
25759;BME280;13604;52.496;13.456;2023-02-17T01:18:57;101450.38;;;6.04;100.00
25759;BME280;13604;52.496;13.456;2023-02-17T01:21:26;101445.97;;;6.03;100.00
25759;BME280;13604;52.496;13.456;2023-02-17T01:23:55;101448.91;;;6.08;100.00
25759;BME280;13604;52.496;13.456;2023-02-17T01:26:23;101449.91;;;6.10;100.00
25759;BME280;13604;52.496;13.456;2023-02-17T01:28:50;101441.28;;;6.10;100.00
25759;BME280;13604;52.496;13.456;2023-02-17T01:31:17;101444.75;;;6.10;100.00
25759;BME280;13604;52.496;13.456;2023-02-17T01:33:42;101441.38;;;6.11;100.00
25759;BME280;13604;52.496;13.456;2023-02-17T01:36:11;101422.06;;;6.18;100.00
25759;BME280;13604;52.496;13.456;2023-02-17T01:38:37;101403.84;;;6.04;100.00
25759;BME280;13604;52.496;13.456;2023-02-17T01:41:04;101427.00;;;6.15;100.00
25759;BME280;13604;52.496;13.456;2023-02-17T01:43:29;101422.28;;;6.21;100.00
25759;BME280;13604;52.496;13.456;2023-02-17T01:46:03;101413.53;;;6.19;100.00
25759;BME280;13604;52.496;13.456;2023-02-17T01:48:35;101427.34;;;6.31;100.00
25759;BME280;13604;52.496;13.456;2023-02-17T01:51:15;101416.34;;;6.22;100.00
25759;BME280;13604;52.496;13.456;2023-02-17T01:54:11;101421.72;;;6.25;100.00
25759;BME280;13604;52.496;13.456;2023-02-17T01:56:40;101398.13;;;6.20;100.00
25759;BME280;13604;52.496;13.456;2023-02-17T01:59:11;101407.88;;;6.24;100.00
25759;BME280;13604;52.496;13.456;2023-02-17T02:01:40;101412.72;;;6.32;100.00
25759;BME280;13604;52.496;13.456;2023-02-17T02:04:05;101385.63;;;6.15;100.00
25759;BME280;13604;52.496;13.456;2023-02-17T02:06:33;101408.47;;;6.20;100.00
25759;BME280;13604;52.496;13.456;2023-02-17T02:09:04;101413.06;;;6.13;100.00
25759;BME280;13604;52.496;13.456;2023-02-17T02:11:31;101378.56;;;6.00;100.00
25759;BME280;13604;52.496;13.456;2023-02-17T02:13:57;101395.53;;;6.08;100.00
25759;BME280;13604;52.496;13.456;2023-02-17T02:16:37;101392.03;;;5.96;100.00
25759;BME280;13604;52.496;13.456;2023-02-17T02:19:35;101371.97;;;5.82;100.00
25759;BME280;13604;52.496;13.456;2023-02-17T02:22:17;101374.44;;;5.80;100.00
25759;BME280;13604;52.496;13.456;2023-02-17T02:27:44;101366.69;;;5.68;100.00
25759;BME280;13604;52.496;13.456;2023-02-17T02:30:34;101354.88;;;5.60;100.00
25759;BME280;13604;52.496;13.456;2023-02-17T02:33:15;101326.09;;;5.44;100.00
25759;BME280;13604;52.496;13.456;2023-02-17T02:38:48;101320.63;;;5.51;100.00
25759;BME280;13604;52.496;13.456;2023-02-17T02:41:20;101330.84;;;5.61;100.00
25759;BME280;13604;52.496;13.456;2023-02-17T02:43:47;101327.13;;;5.58;100.00
25759;BME280;13604;52.496;13.456;2023-02-17T02:46:13;101332.84;;;5.53;100.00
25759;BME280;13604;52.496;13.456;2023-02-17T02:48:39;101329.03;;;5.60;100.00
25759;BME280;13604;52.496;13.456;2023-02-17T02:51:10;101324.44;;;5.56;100.00
25759;BME280;13604;52.496;13.456;2023-02-17T02:53:57;101324.31;;;5.55;100.00
25759;BME280;13604;52.496;13.456;2023-02-17T03:02:15;101294.66;;;5.49;100.00
25759;BME280;13604;52.496;13.456;2023-02-17T03:07:34;101299.72;;;5.60;100.00
25759;BME280;13604;52.496;13.456;2023-02-17T03:10:03;101304.06;;;5.61;100.00
25759;BME280;13604;52.496;13.456;2023-02-17T03:12:28;101288.81;;;5.64;100.00
25759;BME280;13604;52.496;13.456;2023-02-17T03:15:01;101283.22;;;5.58;100.00
25759;BME280;13604;52.496;13.456;2023-02-17T03:17:31;101282.97;;;5.55;100.00
25759;BME280;13604;52.496;13.456;2023-02-17T03:19:59;101285.88;;;5.47;100.00
25759;BME280;13604;52.496;13.456;2023-02-17T03:22:33;101285.44;;;5.53;100.00
25759;BME280;13604;52.496;13.456;2023-02-17T03:24:59;101270.25;;;5.46;100.00
25759;BME280;13604;52.496;13.456;2023-02-17T03:27:25;101276.47;;;5.48;100.00
25759;BME280;13604;52.496;13.456;2023-02-17T03:29:51;101239.94;;;5.31;100.00
25759;BME280;13604;52.496;13.456;2023-02-17T03:32:16;101254.63;;;5.44;100.00
25759;BME280;13604;52.496;13.456;2023-02-17T03:34:42;101259.25;;;5.48;100.00
25759;BME280;13604;52.496;13.456;2023-02-17T03:37:07;101289.38;;;5.60;100.00
25759;BME280;13604;52.496;13.456;2023-02-17T03:39:32;101278.03;;;5.58;100.00
25759;BME280;13604;52.496;13.456;2023-02-17T03:41:58;101291.16;;;5.61;100.00
25759;BME280;13604;52.496;13.456;2023-02-17T03:44:23;101289.72;;;5.64;100.00
25759;BME280;13604;52.496;13.456;2023-02-17T03:46:48;101260.97;;;5.60;100.00
25759;BME280;13604;52.496;13.456;2023-02-17T03:49:14;101276.81;;;5.64;100.00
25759;BME280;13604;52.496;13.456;2023-02-17T03:51:39;101262.44;;;5.56;100.00
25759;BME280;13604;52.496;13.456;2023-02-17T03:54:04;101277.47;;;5.62;100.00
25759;BME280;13604;52.496;13.456;2023-02-17T03:56:30;101254.56;;;5.55;100.00
25759;BME280;13604;52.496;13.456;2023-02-17T03:58:55;101261.72;;;5.70;100.00
25759;BME280;13604;52.496;13.456;2023-02-17T04:01:20;101270.41;;;5.71;100.00
25759;BME280;13604;52.496;13.456;2023-02-17T04:03:46;101244.34;;;5.56;100.00
25759;BME280;13604;52.496;13.456;2023-02-17T04:06:11;101240.53;;;5.51;100.00
25759;BME280;13604;52.496;13.456;2023-02-17T04:08:37;101259.59;;;5.65;100.00
25759;BME280;13604;52.496;13.456;2023-02-17T04:11:04;101228.38;;;5.50;100.00
25759;BME280;13604;52.496;13.456;2023-02-17T04:13:30;101232.41;;;5.58;100.00
25759;BME280;13604;52.496;13.456;2023-02-17T04:15:55;101235.00;;;5.58;100.00
25759;BME280;13604;52.496;13.456;2023-02-17T04:18:22;101238.59;;;5.60;100.00
25759;BME280;13604;52.496;13.456;2023-02-17T04:20:48;101245.09;;;5.67;100.00
25759;BME280;13604;52.496;13.456;2023-02-17T04:23:15;101235.56;;;5.66;100.00
25759;BME280;13604;52.496;13.456;2023-02-17T04:25:40;101244.44;;;5.69;100.00
25759;BME280;13604;52.496;13.456;2023-02-17T04:28:06;101248.69;;;5.69;100.00
25759;BME280;13604;52.496;13.456;2023-02-17T04:30:31;101238.28;;;5.67;100.00
25759;BME280;13604;52.496;13.456;2023-02-17T04:32:57;101219.03;;;5.64;100.00
25759;BME280;13604;52.496;13.456;2023-02-17T04:35:22;101229.59;;;5.67;100.00
25759;BME280;13604;52.496;13.456;2023-02-17T04:37:48;101208.16;;;5.56;100.00
25759;BME280;13604;52.496;13.456;2023-02-17T04:40:13;101217.78;;;5.70;100.00
25759;BME280;13604;52.496;13.456;2023-02-17T04:42:39;101216.44;;;5.64;100.00
25759;BME280;13604;52.496;13.456;2023-02-17T04:45:05;101229.81;;;5.70;100.00
25759;BME280;13604;52.496;13.456;2023-02-17T04:47:30;101197.59;;;5.53;100.00
25759;BME280;13604;52.496;13.456;2023-02-17T04:49:55;101225.78;;;5.62;100.00
25759;BME280;13604;52.496;13.456;2023-02-17T04:52:21;101209.50;;;5.63;100.00
25759;BME280;13604;52.496;13.456;2023-02-17T04:54:46;101224.41;;;5.79;100.00
25759;BME280;13604;52.496;13.456;2023-02-17T04:57:11;101224.28;;;5.77;100.00
25759;BME280;13604;52.496;13.456;2023-02-17T04:59:37;101177.16;;;5.56;100.00
25759;BME280;13604;52.496;13.456;2023-02-17T05:02:02;101214.28;;;5.82;100.00
25759;BME280;13604;52.496;13.456;2023-02-17T05:04:27;101190.28;;;5.71;100.00
25759;BME280;13604;52.496;13.456;2023-02-17T05:06:53;101187.81;;;5.72;100.00
25759;BME280;13604;52.496;13.456;2023-02-17T05:09:18;101188.91;;;5.76;100.00
25759;BME280;13604;52.496;13.456;2023-02-17T05:11:43;101215.22;;;5.82;100.00
25759;BME280;13604;52.496;13.456;2023-02-17T05:14:09;101189.16;;;5.79;100.00
25759;BME280;13604;52.496;13.456;2023-02-17T05:16:34;101195.75;;;5.87;100.00
25759;BME280;13604;52.496;13.456;2023-02-17T05:18:59;101180.34;;;5.77;100.00
25759;BME280;13604;52.496;13.456;2023-02-17T05:21:25;101179.59;;;5.78;100.00
25759;BME280;13604;52.496;13.456;2023-02-17T05:23:50;101187.78;;;5.84;100.00
25759;BME280;13604;52.496;13.456;2023-02-17T05:26:15;101184.38;;;5.85;100.00
25759;BME280;13604;52.496;13.456;2023-02-17T05:28:41;101179.31;;;5.87;100.00
25759;BME280;13604;52.496;13.456;2023-02-17T05:31:06;101179.91;;;5.83;100.00
25759;BME280;13604;52.496;13.456;2023-02-17T05:33:31;101191.69;;;5.91;100.00
25759;BME280;13604;52.496;13.456;2023-02-17T05:36:05;101169.69;;;5.84;100.00
25759;BME280;13604;52.496;13.456;2023-02-17T05:38:31;101168.56;;;5.81;100.00
25759;BME280;13604;52.496;13.456;2023-02-17T05:40:57;101175.53;;;5.82;100.00
25759;BME280;13604;52.496;13.456;2023-02-17T05:43:22;101182.94;;;5.89;100.00
25759;BME280;13604;52.496;13.456;2023-02-17T05:45:47;101151.59;;;5.84;100.00
25759;BME280;13604;52.496;13.456;2023-02-17T05:48:13;101177.66;;;5.99;100.00
25759;BME280;13604;52.496;13.456;2023-02-17T05:50:38;101112.97;;;5.62;100.00
25759;BME280;13604;52.496;13.456;2023-02-17T05:53:03;101155.19;;;5.86;100.00
25759;BME280;13604;52.496;13.456;2023-02-17T05:55:29;101177.19;;;5.93;100.00
25759;BME280;13604;52.496;13.456;2023-02-17T05:57:54;101176.53;;;5.96;100.00
25759;BME280;13604;52.496;13.456;2023-02-17T06:00:19;101155.94;;;5.85;100.00
25759;BME280;13604;52.496;13.456;2023-02-17T06:02:45;101180.25;;;5.99;100.00
25759;BME280;13604;52.496;13.456;2023-02-17T06:05:10;101169.91;;;5.99;100.00
25759;BME280;13604;52.496;13.456;2023-02-17T06:07:35;101171.78;;;6.02;100.00
25759;BME280;13604;52.496;13.456;2023-02-17T06:10:01;101172.50;;;5.99;100.00
25759;BME280;13604;52.496;13.456;2023-02-17T06:12:26;101170.13;;;6.02;100.00
25759;BME280;13604;52.496;13.456;2023-02-17T06:14:51;101132.81;;;5.87;100.00
25759;BME280;13604;52.496;13.456;2023-02-17T06:17:16;101137.84;;;5.85;100.00
25759;BME280;13604;52.496;13.456;2023-02-17T06:19:42;101129.91;;;5.82;100.00
25759;BME280;13604;52.496;13.456;2023-02-17T06:22:07;101121.34;;;5.83;100.00
25759;BME280;13604;52.496;13.456;2023-02-17T06:24:32;101122.69;;;5.90;100.00
25759;BME280;13604;52.496;13.456;2023-02-17T06:26:58;101133.81;;;6.01;100.00
25759;BME280;13604;52.496;13.456;2023-02-17T06:29:23;101116.03;;;5.94;100.00
25759;BME280;13604;52.496;13.456;2023-02-17T06:31:48;101138.72;;;6.10;100.00
25759;BME280;13604;52.496;13.456;2023-02-17T06:34:13;101120.41;;;5.95;100.00
25759;BME280;13604;52.496;13.456;2023-02-17T06:36:39;101126.16;;;6.02;100.00
25759;BME280;13604;52.496;13.456;2023-02-17T06:39:04;101137.25;;;6.13;100.00
25759;BME280;13604;52.496;13.456;2023-02-17T06:41:29;101123.91;;;6.07;100.00
25759;BME280;13604;52.496;13.456;2023-02-17T06:43:55;101141.03;;;6.18;100.00
25759;BME280;13604;52.496;13.456;2023-02-17T06:46:20;101130.78;;;6.20;100.00
25759;BME280;13604;52.496;13.456;2023-02-17T06:48:47;101135.50;;;6.25;100.00
25759;BME280;13604;52.496;13.456;2023-02-17T06:51:12;101115.00;;;6.15;100.00
25759;BME280;13604;52.496;13.456;2023-02-17T06:53:37;101099.66;;;6.18;100.00
25759;BME280;13604;52.496;13.456;2023-02-17T06:56:03;101115.09;;;6.17;100.00
25759;BME280;13604;52.496;13.456;2023-02-17T06:58:28;101127.59;;;6.36;100.00
25759;BME280;13604;52.496;13.456;2023-02-17T07:00:53;101107.38;;;6.30;100.00
25759;BME280;13604;52.496;13.456;2023-02-17T07:03:19;101101.41;;;6.31;100.00
25759;BME280;13604;52.496;13.456;2023-02-17T07:05:44;101121.94;;;6.41;100.00
25759;BME280;13604;52.496;13.456;2023-02-17T07:08:09;101114.56;;;6.48;100.00
25759;BME280;13604;52.496;13.456;2023-02-17T07:10:36;101109.59;;;6.51;100.00
25759;BME280;13604;52.496;13.456;2023-02-17T07:13:01;101109.16;;;6.56;100.00
25759;BME280;13604;52.496;13.456;2023-02-17T07:15:27;101078.03;;;6.43;100.00
25759;BME280;13604;52.496;13.456;2023-02-17T07:17:52;101118.88;;;6.60;100.00
25759;BME280;13604;52.496;13.456;2023-02-17T07:20:17;101106.47;;;6.68;100.00
25759;BME280;13604;52.496;13.456;2023-02-17T07:22:43;101110.47;;;6.76;100.00
25759;BME280;13604;52.496;13.456;2023-02-17T07:25:08;101121.22;;;6.82;100.00
25759;BME280;13604;52.496;13.456;2023-02-17T07:27:35;101115.13;;;6.82;100.00
25759;BME280;13604;52.496;13.456;2023-02-17T07:30:00;101079.88;;;6.71;100.00
25759;BME280;13604;52.496;13.456;2023-02-17T07:32:26;101090.06;;;6.81;100.00
25759;BME280;13604;52.496;13.456;2023-02-17T07:34:51;101091.25;;;6.86;100.00
25759;BME280;13604;52.496;13.456;2023-02-17T07:37:16;101107.09;;;7.04;100.00
25759;BME280;13604;52.496;13.456;2023-02-17T07:39:44;101103.53;;;7.15;100.00
25759;BME280;13604;52.496;13.456;2023-02-17T07:42:09;101089.66;;;7.15;100.00
25759;BME280;13604;52.496;13.456;2023-02-17T07:44:34;101092.63;;;7.34;100.00
25759;BME280;13604;52.496;13.456;2023-02-17T07:46:59;101062.88;;;7.14;100.00
25759;BME280;13604;52.496;13.456;2023-02-17T07:49:25;101088.31;;;7.35;100.00
25759;BME280;13604;52.496;13.456;2023-02-17T07:51:50;101087.75;;;7.39;100.00
25759;BME280;13604;52.496;13.456;2023-02-17T07:54:15;101079.84;;;7.51;100.00
25759;BME280;13604;52.496;13.456;2023-02-17T07:56:41;101059.53;;;7.44;100.00
25759;BME280;13604;52.496;13.456;2023-02-17T07:59:10;101076.72;;;7.70;100.00
25759;BME280;13604;52.496;13.456;2023-02-17T08:01:36;101072.16;;;7.81;100.00
25759;BME280;13604;52.496;13.456;2023-02-17T08:04:02;101060.53;;;7.74;100.00
25759;BME280;13604;52.496;13.456;2023-02-17T08:06:28;101073.25;;;7.84;100.00
25759;BME280;13604;52.496;13.456;2023-02-17T08:08:53;101074.16;;;7.85;100.00
25759;BME280;13604;52.496;13.456;2023-02-17T08:11:38;101074.44;;;7.89;100.00
25759;BME280;13604;52.496;13.456;2023-02-17T08:14:23;101083.50;;;7.96;100.00
25759;BME280;13604;52.496;13.456;2023-02-17T08:16:49;101068.16;;;7.86;100.00
25759;BME280;13604;52.496;13.456;2023-02-17T08:19:14;101059.00;;;7.78;100.00
25759;BME280;13604;52.496;13.456;2023-02-17T08:21:39;101079.63;;;7.89;100.00
25759;BME280;13604;52.496;13.456;2023-02-17T08:24:05;101052.50;;;7.84;100.00
25759;BME280;13604;52.496;13.456;2023-02-17T08:26:30;101067.94;;;7.96;100.00
25759;BME280;13604;52.496;13.456;2023-02-17T08:28:55;101055.81;;;7.82;100.00
25759;BME280;13604;52.496;13.456;2023-02-17T08:31:25;101067.56;;;7.90;100.00
25759;BME280;13604;52.496;13.456;2023-02-17T08:33:51;101059.50;;;7.85;100.00
25759;BME280;13604;52.496;13.456;2023-02-17T08:36:17;101062.78;;;7.83;100.00
25759;BME280;13604;52.496;13.456;2023-02-17T08:38:42;101033.03;;;7.63;100.00
25759;BME280;13604;52.496;13.456;2023-02-17T08:41:23;101064.09;;;7.76;100.00
25759;BME280;13604;52.496;13.456;2023-02-17T08:43:49;101053.09;;;7.65;100.00
25759;BME280;13604;52.496;13.456;2023-02-17T08:46:17;101053.09;;;7.65;100.00
25759;BME280;13604;52.496;13.456;2023-02-17T08:48:43;101033.28;;;7.52;100.00
25759;BME280;13604;52.496;13.456;2023-02-17T08:51:14;101058.28;;;7.65;100.00
25759;BME280;13604;52.496;13.456;2023-02-17T08:53:41;101063.75;;;7.70;100.00
25759;BME280;13604;52.496;13.456;2023-02-17T08:56:07;101055.97;;;7.70;100.00
25759;BME280;13604;52.496;13.456;2023-02-17T08:58:33;101041.19;;;7.69;100.00
25759;BME280;13604;52.496;13.456;2023-02-17T09:00:59;101026.88;;;7.61;100.00
25759;BME280;13604;52.496;13.456;2023-02-17T09:03:24;101030.63;;;7.66;100.00
25759;BME280;13604;52.496;13.456;2023-02-17T09:05:53;101011.16;;;7.72;100.00
25759;BME280;13604;52.496;13.456;2023-02-17T09:08:19;101023.09;;;7.84;100.00
25759;BME280;13604;52.496;13.456;2023-02-17T09:10:44;101017.41;;;7.89;100.00
25759;BME280;13604;52.496;13.456;2023-02-17T09:13:10;101010.31;;;7.87;100.00
25759;BME280;13604;52.496;13.456;2023-02-17T09:15:35;101004.16;;;7.85;100.00
25759;BME280;13604;52.496;13.456;2023-02-17T09:18:00;100990.63;;;7.76;100.00
25759;BME280;13604;52.496;13.456;2023-02-17T09:20:26;100991.50;;;7.76;100.00
25759;BME280;13604;52.496;13.456;2023-02-17T09:22:51;100990.81;;;7.79;100.00
25759;BME280;13604;52.496;13.456;2023-02-17T09:25:16;100994.38;;;7.81;100.00
25759;BME280;13604;52.496;13.456;2023-02-17T09:27:42;100963.97;;;7.63;100.00
25759;BME280;13604;52.496;13.456;2023-02-17T09:30:07;100960.19;;;7.58;100.00
25759;BME280;13604;52.496;13.456;2023-02-17T09:32:33;100958.59;;;7.60;100.00
25759;BME280;13604;52.496;13.456;2023-02-17T09:34:58;100968.47;;;7.81;100.00
25759;BME280;13604;52.496;13.456;2023-02-17T09:37:25;100947.00;;;7.68;100.00
25759;BME280;13604;52.496;13.456;2023-02-17T09:39:50;100953.25;;;7.72;100.00
25759;BME280;13604;52.496;13.456;2023-02-17T09:42:19;100961.81;;;7.71;100.00
25759;BME280;13604;52.496;13.456;2023-02-17T09:44:58;100952.00;;;7.80;100.00
25759;BME280;13604;52.496;13.456;2023-02-17T09:47:47;100954.88;;;7.85;100.00
25759;BME280;13604;52.496;13.456;2023-02-17T09:50:20;100957.91;;;7.78;100.00
25759;BME280;13604;52.496;13.456;2023-02-17T09:52:57;100949.22;;;7.77;100.00
25759;BME280;13604;52.496;13.456;2023-02-17T09:55:28;100942.00;;;7.71;100.00
25759;BME280;13604;52.496;13.456;2023-02-17T09:57:58;100924.19;;;7.63;100.00
25759;BME280;13604;52.496;13.456;2023-02-17T10:00:32;100934.44;;;7.61;100.00
25759;BME280;13604;52.496;13.456;2023-02-17T10:03:14;100936.06;;;7.59;100.00
25759;BME280;13604;52.496;13.456;2023-02-17T10:08:35;100930.97;;;7.61;100.00
25759;BME280;13604;52.496;13.456;2023-02-17T10:11:14;100893.50;;;7.41;100.00
25759;BME280;13604;52.496;13.456;2023-02-17T10:13:43;100918.19;;;7.64;100.00
25759;BME280;13604;52.496;13.456;2023-02-17T10:16:15;100919.09;;;7.64;100.00
25759;BME280;13604;52.496;13.456;2023-02-17T10:18:48;100894.59;;;7.59;100.00
25759;BME280;13604;52.496;13.456;2023-02-17T10:21:18;100907.66;;;7.61;100.00
25759;BME280;13604;52.496;13.456;2023-02-17T10:23:47;100906.22;;;7.66;100.00
25759;BME280;13604;52.496;13.456;2023-02-17T10:26:32;100905.53;;;7.68;100.00
25759;BME280;13604;52.496;13.456;2023-02-17T10:29:33;100888.16;;;7.67;100.00
25759;BME280;13604;52.496;13.456;2023-02-17T10:32:22;100883.53;;;7.77;100.00
25759;BME280;13604;52.496;13.456;2023-02-17T10:35:02;100872.09;;;7.73;100.00
25759;BME280;13604;52.496;13.456;2023-02-17T10:37:52;100849.19;;;7.66;100.00
25759;BME280;13604;52.496;13.456;2023-02-17T10:40:22;100850.06;;;7.66;100.00
25759;BME280;13604;52.496;13.456;2023-02-17T10:42:57;100845.72;;;7.65;100.00
25759;BME280;13604;52.496;13.456;2023-02-17T10:45:44;100859.66;;;7.82;100.00
25759;BME280;13604;52.496;13.456;2023-02-17T10:48:17;100809.69;;;7.70;100.00
25759;BME280;13604;52.496;13.456;2023-02-17T10:50:45;100828.81;;;7.87;100.00
25759;BME280;13604;52.496;13.456;2023-02-17T10:53:20;100845.44;;;7.90;100.00
25759;BME280;13604;52.496;13.456;2023-02-17T10:55:57;100839.44;;;7.91;100.00
25759;BME280;13604;52.496;13.456;2023-02-17T10:58:53;100845.13;;;8.01;100.00
25759;BME280;13604;52.496;13.456;2023-02-17T11:01:20;100829.97;;;7.92;100.00
25759;BME280;13604;52.496;13.456;2023-02-17T11:04:07;100831.94;;;7.96;100.00
25759;BME280;13604;52.496;13.456;2023-02-17T11:06:36;100808.84;;;7.86;100.00
25759;BME280;13604;52.496;13.456;2023-02-17T11:09:14;100818.16;;;7.97;100.00
25759;BME280;13604;52.496;13.456;2023-02-17T11:11:49;100793.19;;;7.99;100.00
25759;BME280;13604;52.496;13.456;2023-02-17T11:14:20;100783.16;;;8.05;100.00
25759;BME280;13604;52.496;13.456;2023-02-17T11:16:55;100759.94;;;7.92;100.00
25759;BME280;13604;52.496;13.456;2023-02-17T11:19:31;100768.81;;;8.12;100.00
25759;BME280;13604;52.496;13.456;2023-02-17T11:21:59;100773.47;;;8.18;100.00
25759;BME280;13604;52.496;13.456;2023-02-17T11:24:25;100754.88;;;8.10;100.00
25759;BME280;13604;52.496;13.456;2023-02-17T11:27:08;100741.34;;;8.16;100.00
25759;BME280;13604;52.496;13.456;2023-02-17T11:29:33;100743.22;;;8.18;100.00
25759;BME280;13604;52.496;13.456;2023-02-17T11:32:04;100739.94;;;8.37;100.00
25759;BME280;13604;52.496;13.456;2023-02-17T11:34:32;100747.44;;;8.47;100.00
25759;BME280;13604;52.496;13.456;2023-02-17T11:37:19;100746.78;;;8.52;100.00
25759;BME280;13604;52.496;13.456;2023-02-17T11:39:47;100738.59;;;8.60;100.00
25759;BME280;13604;52.496;13.456;2023-02-17T11:42:14;100728.59;;;8.68;100.00
25759;BME280;13604;52.496;13.456;2023-02-17T11:44:40;100716.22;;;8.62;100.00
25759;BME280;13604;52.496;13.456;2023-02-17T11:50:33;100688.53;;;8.63;100.00
25759;BME280;13604;52.496;13.456;2023-02-17T11:55:37;100674.88;;;8.83;100.00
25759;BME280;13604;52.496;13.456;2023-02-17T11:58:19;100672.97;;;8.97;100.00
25759;BME280;13604;52.496;13.456;2023-02-17T12:01:04;100657.09;;;8.91;100.00
25759;BME280;13604;52.496;13.456;2023-02-17T12:06:35;100651.91;;;9.09;100.00
25759;BME280;13604;52.496;13.456;2023-02-17T12:11:59;100642.38;;;9.26;100.00
25759;BME280;13604;52.496;13.456;2023-02-17T12:19:57;100628.84;;;9.51;100.00
25759;BME280;13604;52.496;13.456;2023-02-17T12:22:44;100608.69;;;9.47;100.00
25759;BME280;13604;52.496;13.456;2023-02-17T12:25:27;100619.38;;;9.71;100.00
25759;BME280;13604;52.496;13.456;2023-02-17T12:30:49;100607.69;;;9.81;100.00
25759;BME280;13604;52.496;13.456;2023-02-17T12:36:09;100576.19;;;9.94;100.00
25759;BME280;13604;52.496;13.456;2023-02-17T12:38:46;100574.97;;;10.06;100.00
25759;BME280;13604;52.496;13.456;2023-02-17T12:41:24;100595.72;;;10.24;100.00
25759;BME280;13604;52.496;13.456;2023-02-17T12:43:54;100594.59;;;10.37;100.00
25759;BME280;13604;52.496;13.456;2023-02-17T12:46:34;100561.47;;;10.34;99.35
25759;BME280;13604;52.496;13.456;2023-02-17T12:49:24;100577.34;;;10.60;98.17
25759;BME280;13604;52.496;13.456;2023-02-17T12:51:56;100589.66;;;10.64;97.78
25759;BME280;13604;52.496;13.456;2023-02-17T12:57:21;100581.28;;;10.71;97.19
25759;BME280;13604;52.496;13.456;2023-02-17T12:59:51;100546.66;;;10.74;96.63
25759;BME280;13604;52.496;13.456;2023-02-17T13:02:19;100568.56;;;11.00;95.21
25759;BME280;13604;52.496;13.456;2023-02-17T13:04:49;100566.09;;;11.03;94.27
25759;BME280;13604;52.496;13.456;2023-02-17T13:07:30;100563.94;;;10.93;94.68
25759;BME280;13604;52.496;13.456;2023-02-17T13:10:00;100573.41;;;10.91;94.55
25759;BME280;13604;52.496;13.456;2023-02-17T13:14:53;100570.16;;;10.75;96.66
25759;BME280;13604;52.496;13.456;2023-02-17T13:17:25;100557.47;;;10.83;95.48
25759;BME280;13604;52.496;13.456;2023-02-17T13:22:32;100551.59;;;10.89;95.21
25759;BME280;13604;52.496;13.456;2023-02-17T13:24:57;100540.16;;;10.85;95.56
25759;BME280;13604;52.496;13.456;2023-02-17T13:32:59;100535.34;;;10.94;95.03
25759;BME280;13604;52.496;13.456;2023-02-17T13:37:53;100527.44;;;11.14;94.22
25759;BME280;13604;52.496;13.456;2023-02-17T13:47:39;100512.25;;;11.26;93.24
25759;BME280;13604;52.496;13.456;2023-02-17T13:50:06;100523.94;;;11.36;92.93
25759;BME280;13604;52.496;13.456;2023-02-17T13:52:49;100515.28;;;11.37;92.97